Time;durP1;ratioP1;P1;durP2;ratioP2;P2;SDS_P1;SDS_P2;PMS_P1;PMS_P2;Temp;Humidity;BMP_temperature;BMP_pressure;BME280_temperature;BME280_humidity;BME280_pressure;Samples;Min_cycle;Max_cycle;Signal;HPM_P1;HPM_P2
2024/02/03 00:02:20;;;;;;;8.27;5.35;;;;;;;8.54;53.36;102332.84;5010498;28;20046;-75
2024/02/03 00:04:48;;;;;;;6.88;5.10;;;;;;;8.52;53.52;102330.19;5010675;28;20401;-75
2024/02/03 00:07:18;;;;;;;7.80;5.32;;;;;;;8.52;53.40;102326.59;5012376;28;20478;-75
2024/02/03 00:09:48;;;;;;;9.05;6.15;;;;;;;8.50;53.38;102320.34;5013148;28;20046;-75
2024/02/03 00:12:21;;;;;;;7.35;5.25;;;;;;;8.47;53.64;102324.13;5022160;28;20052;-75
2024/02/03 00:14:50;;;;;;;8.18;5.80;;;;;;;8.44;53.34;102316.09;5017127;28;20091;-75
2024/02/03 00:17:19;;;;;;;7.22;4.90;;;;;;;8.44;53.54;102316.09;5018771;28;20047;-75
2024/02/03 00:19:47;;;;;;;6.93;4.85;;;;;;;8.45;53.54;102309.69;5016857;28;20053;-75
2024/02/03 00:22:16;;;;;;;7.78;4.97;;;;;;;8.43;53.87;102314.34;5019926;28;20422;-75
2024/02/03 00:24:45;;;;;;;7.00;4.93;;;;;;;8.43;53.87;102314.34;5015770;28;20045;-75
2024/02/03 00:27:14;;;;;;;7.38;5.03;;;;;;;8.41;54.01;102319.03;5003128;28;20540;-75
2024/02/03 00:29:42;;;;;;;7.40;5.13;;;;;;;8.42;54.07;102320.78;5008049;28;20394;-75
2024/02/03 00:32:10;;;;;;;7.45;5.20;;;;;;;8.42;53.72;102320.78;5008832;28;20505;-75
2024/02/03 00:35:30;;;;;;;6.97;5.03;;;;;;;8.41;54.99;102324.47;5011045;28;20041;-75
2024/02/03 00:38:52;;;;;;;7.05;4.68;;;;;;;8.40;55.10;102319.09;5006956;28;20049;-75
2024/02/03 00:41:30;;;;;;;7.15;4.88;;;;;;;8.37;53.94;102316.53;5008588;28;20085;-75
2024/02/03 00:43:59;;;;;;;7.65;4.90;;;;;;;8.39;54.21;102312.75;4992294;28;20067;-75
2024/02/03 00:46:27;;;;;;;6.28;4.30;;;;;;;8.40;54.04;102319.97;5025145;28;20140;-75
2024/02/03 00:49:02;;;;;;;6.57;4.47;;;;;;;8.42;54.69;102323.50;5009920;28;20042;-75
2024/02/03 00:51:30;;;;;;;5.95;3.97;;;;;;;8.39;53.99;102317.34;5013348;28;20092;-75
2024/02/03 00:53:58;;;;;;;5.65;4.03;;;;;;;8.40;53.97;102310.91;5028533;28;20045;-75
2024/02/03 00:56:26;;;;;;;6.97;4.78;;;;;;;8.41;53.87;102312.69;5015045;28;20112;-75
2024/02/03 00:59:01;;;;;;;6.85;4.78;;;;;;;8.43;55.07;102308.00;5024639;28;20506;-75
2024/02/03 01:01:29;;;;;;;6.50;4.28;;;;;;;8.39;54.20;102310.03;5002175;28;20045;-74
2024/02/03 01:03:57;;;;;;;7.15;4.35;;;;;;;8.39;54.06;102307.31;4995596;28;20133;-75
2024/02/03 01:06:25;;;;;;;6.53;4.57;;;;;;;8.39;54.51;102315.50;5001000;28;20049;-74
2024/02/03 01:08:53;;;;;;;7.22;5.10;;;;;;;8.40;54.51;102308.19;5001672;28;20044;-74
2024/02/03 01:11:22;;;;;;;6.03;4.30;;;;;;;8.39;54.42;102314.59;5018533;28;20038;-75
2024/02/03 01:13:50;;;;;;;6.22;4.45;;;;;;;8.39;54.46;102315.50;4991415;28;20046;-75
2024/02/03 01:16:21;;;;;;;7.15;4.43;;;;;;;8.40;54.55;102319.97;5017670;28;20034;-75
2024/02/03 01:18:52;;;;;;;6.22;4.28;;;;;;;8.39;54.33;102317.34;5004869;28;20069;-74
2024/02/03 01:21:22;;;;;;;5.72;4.28;;;;;;;8.41;54.57;102312.69;5010900;28;20133;-74
2024/02/03 01:23:51;;;;;;;6.82;4.38;;;;;;;8.39;54.44;102307.31;5024483;28;20115;-74
2024/02/03 01:26:18;;;;;;;6.50;4.68;;;;;;;8.40;54.40;102308.19;5004582;28;20096;-74
2024/02/03 01:28:46;;;;;;;6.63;4.32;;;;;;;8.40;54.57;102305.47;5015983;28;20056;-74
2024/02/03 01:31:14;;;;;;;6.05;4.35;;;;;;;8.39;54.66;102303.69;4988968;28;20069;-75
2024/02/03 01:33:44;;;;;;;6.80;4.70;;;;;;;8.42;54.64;102296.22;5016740;28;20413;-74
2024/02/03 01:36:12;;;;;;;7.00;4.70;;;;;;;8.41;54.67;102307.22;5025649;28;20053;-74
2024/02/03 01:38:43;;;;;;;6.43;4.57;;;;;;;8.40;54.29;102303.63;4997188;28;20076;-75
2024/02/03 01:41:12;;;;;;;6.55;4.72;;;;;;;8.39;54.86;102304.56;4992896;28;20057;-74
2024/02/03 01:43:40;;;;;;;6.38;4.53;;;;;;;8.38;54.82;102305.53;5016245;28;20033;-75
2024/02/03 01:46:08;;;;;;;6.10;4.28;;;;;;;8.38;54.68;102308.25;5002337;28;20589;-74
2024/02/03 01:48:36;;;;;;;6.00;4.32;;;;;;;8.39;54.70;102307.31;5004437;28;20083;-75
2024/02/03 01:51:07;;;;;;;5.68;4.07;;;;;;;8.40;55.04;102308.19;5019338;28;20481;-74
2024/02/03 01:53:36;;;;;;;5.78;4.13;;;;;;;8.38;54.99;102302.81;4990558;28;20046;-74
2024/02/03 01:56:04;;;;;;;6.13;4.22;;;;;;;8.40;55.06;102311.81;4988914;28;20476;-73
2024/02/03 01:58:32;;;;;;;6.30;4.43;;;;;;;8.40;55.07;102302.72;5017431;28;20053;-75
2024/02/03 02:01:01;;;;;;;6.22;4.50;;;;;;;8.40;54.93;102294.53;4993145;28;20108;-75
2024/02/03 02:03:29;;;;;;;6.60;4.38;;;;;;;8.40;55.07;102295.44;5014127;28;20092;-75
2024/02/03 02:05:57;;;;;;;5.38;4.25;;;;;;;8.40;54.61;102281.78;5004657;28;20049;-75
2024/02/03 02:08:33;;;;;;;6.03;4.25;;;;;;;8.43;55.80;102281.59;5020258;28;20052;-75
2024/02/03 02:11:02;;;;;;;6.68;4.40;;;;;;;8.41;55.02;102290.84;5022856;28;20451;-75
2024/02/03 02:13:30;;;;;;;5.70;3.90;;;;;;;8.43;55.10;102294.34;5002842;28;20044;-75
2024/02/03 02:15:59;;;;;;;7.30;4.05;;;;;;;8.42;55.14;102289.91;5023838;28;20459;-75
2024/02/03 02:18:27;;;;;;;5.43;3.60;;;;;;;8.42;55.16;102290.78;5015512;28;20164;-75
2024/02/03 02:21:08;;;;;;;5.38;3.85;;;;;;;8.45;55.30;102292.44;5027369;28;20084;-75
2024/02/03 02:23:40;;;;;;;5.57;3.83;;;;;;;8.41;54.94;102283.56;4997879;28;20475;-75
2024/02/03 02:26:08;;;;;;;6.10;3.92;;;;;;;8.43;55.19;102287.06;5009294;28;20046;-75
2024/02/03 02:28:39;;;;;;;5.95;3.72;;;;;;;8.44;54.81;102287.94;5015908;28;20037;-75
2024/02/03 02:31:07;;;;;;;4.93;3.35;;;;;;;8.43;54.87;102278.88;5007142;28;20100;-75
2024/02/03 02:33:35;;;;;;;6.00;3.90;;;;;;;8.43;54.92;102278.88;5013269;28;20041;-75
2024/02/03 02:36:05;;;;;;;5.55;3.75;;;;;;;8.44;54.90;102266.09;5020131;28;20075;-75
2024/02/03 02:38:33;;;;;;;5.55;3.83;;;;;;;8.42;55.37;102274.41;5013897;28;20044;-75
2024/02/03 02:41:01;;;;;;;5.05;3.33;;;;;;;8.44;55.00;102266.09;5020918;28;20610;-74
2024/02/03 02:43:29;;;;;;;5.22;3.45;;;;;;;8.44;55.06;102263.38;5010187;28;20084;-75
2024/02/03 02:45:58;;;;;;;6.60;3.88;;;;;;;8.44;55.19;102269.72;5011086;28;20548;-75
2024/02/03 02:48:26;;;;;;;6.05;3.88;;;;;;;8.45;55.35;102260.56;5028082;28;20483;-75
2024/02/03 02:50:54;;;;;;;6.38;3.78;;;;;;;8.45;54.99;102257.84;5001250;28;20088;-74
2024/02/03 02:53:26;;;;;;;6.43;4.18;;;;;;;8.47;54.85;102258.66;5021014;28;20049;-75
2024/02/03 02:55:54;;;;;;;5.13;3.60;;;;;;;8.46;55.11;102262.34;5022697;28;20041;-75
2024/02/03 02:58:25;;;;;;;5.40;3.70;;;;;;;8.46;55.03;102251.44;5011786;28;20037;-75
2024/02/03 03:00:53;;;;;;;5.30;3.40;;;;;;;8.48;55.34;102252.22;4993470;28;20104;-75
2024/02/03 03:03:22;;;;;;;5.55;3.92;;;;;;;8.49;55.36;102244.91;5010384;28;20069;-74
2024/02/03 03:05:50;;;;;;;5.65;3.20;;;;;;;8.50;55.28;102244.84;5020182;28;20506;-75
2024/02/03 03:08:18;;;;;;;5.43;3.63;;;;;;;8.50;54.96;102241.22;4995982;28;20096;-74
2024/02/03 03:10:47;;;;;;;4.97;3.50;;;;;;;8.52;55.17;102240.16;5016522;28;20065;-75
2024/02/03 03:13:15;;;;;;;5.05;3.63;;;;;;;8.52;55.30;102244.72;5019618;28;20037;-74
2024/02/03 03:15:43;;;;;;;5.00;3.80;;;;;;;8.53;55.02;102241.03;4999228;28;20601;-75
2024/02/03 03:18:12;;;;;;;5.85;3.80;;;;;;;8.54;55.01;102240.06;5012552;28;20042;-75
2024/02/03 03:20:41;;;;;;;5.07;3.50;;;;;;;8.53;55.01;102239.19;5028471;28;20061;-75
2024/02/03 03:23:09;;;;;;;4.47;3.20;;;;;;;8.54;55.30;102234.63;5013958;28;20046;-75
2024/02/03 03:25:37;;;;;;;4.35;2.92;;;;;;;8.55;54.90;102234.53;4996050;28;20029;-74
2024/02/03 03:28:06;;;;;;;3.92;2.83;;;;;;;8.57;55.04;102227.16;5018268;28;20050;-75
2024/02/03 03:30:34;;;;;;;4.85;3.28;;;;;;;8.56;55.01;102233.56;5015406;28;20045;-75
2024/02/03 03:33:02;;;;;;;4.40;3.15;;;;;;;8.56;55.21;102232.69;5017877;28;20061;-75
2024/02/03 03:35:30;;;;;;;4.80;3.30;;;;;;;8.57;54.88;102231.72;5006544;28;20064;-75
2024/02/03 03:37:58;;;;;;;4.28;3.13;;;;;;;8.57;54.98;102226.25;5011560;28;20073;-75
2024/02/03 03:40:26;;;;;;;4.45;2.88;;;;;;;8.57;55.33;102223.53;5002697;28;20112;-75
2024/02/03 03:42:55;;;;;;;3.58;2.55;;;;;;;8.58;55.00;102234.38;5032137;28;20077;-75
2024/02/03 03:45:24;;;;;;;4.40;2.88;;;;;;;8.60;55.21;102220.59;4990739;28;20038;-74
2024/02/03 03:47:52;;;;;;;5.50;3.08;;;;;;;8.59;55.37;102218.84;5020384;28;20052;-75
2024/02/03 03:50:20;;;;;;;4.43;3.00;;;;;;;8.58;55.09;102223.44;5010288;28;20072;-75
2024/02/03 03:52:48;;;;;;;4.30;2.75;;;;;;;8.58;55.30;102217.13;4995026;28;20121;-74
2024/02/03 03:55:16;;;;;;;4.43;2.97;;;;;;;8.59;54.93;102216.13;5017626;28;20030;-75
2024/02/03 03:57:44;;;;;;;4.13;2.78;;;;;;;8.59;55.23;102214.28;4992073;28;20065;-75
2024/02/03 04:00:13;;;;;;;4.75;3.10;;;;;;;8.61;55.13;102219.66;5010767;28;20513;-75
2024/02/03 04:02:43;;;;;;;4.38;2.95;;;;;;;8.61;55.14;102216.91;5009267;28;20053;-75
2024/02/03 04:05:11;;;;;;;4.68;3.03;;;;;;;8.61;55.08;102222.38;5017070;28;20484;-75
2024/02/03 04:07:39;;;;;;;3.80;2.47;;;;;;;8.61;54.92;102222.38;5018311;28;20095;-75
2024/02/03 04:10:07;;;;;;;4.10;2.80;;;;;;;8.62;55.44;102221.41;5000526;28;20049;-75
2024/02/03 04:12:35;;;;;;;5.03;2.92;;;;;;;8.61;55.45;102227.84;5027736;28;20049;-75
2024/02/03 04:15:04;;;;;;;4.05;2.50;;;;;;;8.62;55.02;102218.69;5015372;28;20041;-75
2024/02/03 04:17:32;;;;;;;4.53;2.80;;;;;;;8.63;54.96;102225.91;5019125;28;20045;-75
2024/02/03 04:20:02;;;;;;;3.80;2.50;;;;;;;8.65;55.09;102232.16;5019177;28;20072;-75
2024/02/03 04:22:30;;;;;;;4.53;2.95;;;;;;;8.63;55.37;102236.81;5014233;28;20041;-74
2024/02/03 04:24:58;;;;;;;4.13;2.65;;;;;;;8.63;55.40;102221.31;5021561;28;20477;-74
2024/02/03 04:27:26;;;;;;;3.80;2.47;;;;;;;8.64;54.89;102227.66;5006265;28;20056;-75
2024/02/03 04:29:53;;;;;;;4.03;2.83;;;;;;;8.64;55.24;102227.66;5011405;28;20038;-75
2024/02/03 04:32:22;;;;;;;4.68;2.97;;;;;;;8.64;55.32;102223.09;5014686;28;20046;-74
2024/02/03 04:34:50;;;;;;;4.22;3.13;;;;;;;8.65;54.88;102218.50;5020423;28;20417;-75
2024/02/03 04:37:19;;;;;;;7.43;4.00;;;;;;;8.67;54.88;102225.63;5009829;28;20077;-75
2024/02/03 04:39:47;;;;;;;4.38;3.00;;;;;;;8.66;55.11;102223.88;5016176;28;20045;-75
2024/02/03 04:49:17;;;;;;;4.55;2.70;;;;;;;8.63;55.28;102204.94;4973949;28;20372;-75
2024/02/03 04:51:45;;;;;;;5.28;3.20;;;;;;;8.64;55.02;102209.44;5006167;28;20124;-74
2024/02/03 04:54:15;;;;;;;5.53;3.35;;;;;;;8.67;54.89;102211.97;5027063;28;20387;-74
2024/02/03 04:56:43;;;;;;;4.97;3.55;;;;;;;8.66;55.36;102209.34;5019451;28;20042;-75
2024/02/03 04:59:11;;;;;;;5.53;3.80;;;;;;;8.66;54.94;102195.72;5011372;28;20473;-75
2024/02/03 05:01:39;;;;;;;5.75;3.70;;;;;;;8.66;55.20;102199.31;4994574;28;20053;-75
2024/02/03 05:04:27;;;;;;;5.07;3.55;;;;;;;8.67;55.73;102203.78;5014706;28;20579;-74
2024/02/03 05:07:03;;;;;;;6.30;3.85;;;;;;;8.66;55.04;102198.44;5023268;28;20450;-75
2024/02/03 05:09:32;;;;;;;5.95;3.90;;;;;;;8.68;55.15;102201.94;5010218;28;20045;-74
2024/02/03 05:12:00;;;;;;;5.97;4.10;;;;;;;8.67;55.36;102201.06;4985631;28;20129;-75
2024/02/03 05:14:28;;;;;;;6.00;3.72;;;;;;;8.69;55.51;102198.25;5012246;28;20038;-75
2024/02/03 05:16:56;;;;;;;5.63;4.18;;;;;;;8.69;55.15;102199.13;5022007;28;20045;-74
2024/02/03 05:19:26;;;;;;;6.68;4.28;;;;;;;8.68;55.51;102193.75;4991664;28;20120;-74
2024/02/03 05:21:54;;;;;;;5.32;3.65;;;;;;;8.69;55.32;102192.78;5028818;28;20133;-74
2024/02/03 05:24:32;;;;;;;5.30;3.80;;;;;;;8.71;55.85;102197.19;5024402;28;20108;-75
2024/02/03 05:27:06;;;;;;;6.18;4.05;;;;;;;8.69;55.65;102184.59;5024554;28;20125;-75
2024/02/03 05:29:45;;;;;;;6.03;3.88;;;;;;;8.67;55.32;102190.13;5084384;23;20484;-75
2024/02/03 05:32:13;;;;;;;5.60;3.90;;;;;;;8.70;55.56;102194.53;5003003;28;20128;-75
2024/02/03 05:34:41;;;;;;;5.30;3.75;;;;;;;8.71;55.44;102191.72;5031171;28;20045;-75
2024/02/03 05:37:10;;;;;;;5.60;4.10;;;;;;;8.71;55.37;102205.38;5051461;28;20160;-75
2024/02/03 05:39:40;;;;;;;6.03;4.32;;;;;;;8.72;55.15;102200.81;5047138;28;20522;-75
2024/02/03 05:42:08;;;;;;;5.35;3.63;;;;;;;8.73;55.36;102196.22;5045056;28;20037;-75
2024/02/03 05:44:36;;;;;;;6.80;4.30;;;;;;;8.73;55.57;102204.41;5047370;28;20502;-75
2024/02/03 05:47:04;;;;;;;5.43;3.70;;;;;;;8.74;55.52;102195.25;5020873;28;20777;-75
2024/02/03 05:49:33;;;;;;;6.75;4.45;;;;;;;8.74;55.44;102201.59;5026297;28;20548;-75
2024/02/03 05:52:01;;;;;;;5.43;3.65;;;;;;;8.74;55.23;102193.41;5036804;28;20109;-75
2024/02/03 05:54:29;;;;;;;6.90;4.40;;;;;;;8.75;55.65;102189.72;5030164;28;20114;-74
2024/02/03 05:56:59;;;;;;;6.05;4.32;;;;;;;8.76;55.63;102188.72;5036303;28;20040;-75
2024/02/03 05:59:27;;;;;;;8.32;4.30;;;;;;;8.76;55.66;102191.44;5044800;28;20522;-75
2024/02/03 06:01:59;;;;;;;6.05;3.83;;;;;;;8.76;55.44;102206.94;5037723;28;20405;-75
2024/02/03 06:04:28;;;;;;;5.22;3.85;;;;;;;8.77;55.53;102204.13;5035559;28;20079;-75
2024/02/03 06:06:57;;;;;;;6.50;4.70;;;;;;;8.79;55.80;102209.50;5034814;28;20044;-75
2024/02/03 06:09:25;;;;;;;6.40;4.22;;;;;;;8.78;55.77;102208.63;5030533;28;20134;-75
2024/02/03 06:11:53;;;;;;;6.18;4.00;;;;;;;8.80;55.78;102206.69;5037279;28;20040;-75
2024/02/03 06:14:23;;;;;;;6.38;4.38;;;;;;;8.82;55.78;102206.59;5045652;28;20181;-75
2024/02/03 06:16:51;;;;;;;6.07;4.20;;;;;;;8.82;55.77;102201.16;5047492;28;20076;-75
2024/02/03 06:19:19;;;;;;;6.40;4.63;;;;;;;8.81;55.56;102200.28;5050835;28;20099;-75
2024/02/03 06:21:48;;;;;;;6.65;4.60;;;;;;;8.82;55.77;102195.69;5030343;28;20385;-75
2024/02/03 06:24:44;;;;;;;6.47;4.18;;;;;;;8.84;56.07;102191.88;5045846;28;20041;-76
2024/02/03 06:27:29;;;;;;;5.85;3.97;;;;;;;8.79;56.06;102187.66;5061157;28;20044;-74
2024/02/03 06:29:59;;;;;;;5.72;3.88;;;;;;;8.83;55.52;102181.97;5021216;28;20045;-74
2024/02/03 06:32:28;;;;;;;6.35;4.15;;;;;;;8.83;55.62;102167.44;5051100;28;20049;-75
2024/02/03 06:34:56;;;;;;;5.80;4.20;;;;;;;8.83;55.61;102172.88;5055811;28;20045;-75
2024/02/03 06:37:24;;;;;;;6.13;4.32;;;;;;;8.84;55.83;102174.63;5053227;28;20033;-75
2024/02/03 06:39:52;;;;;;;6.18;4.07;;;;;;;8.84;56.00;102182.81;5042822;28;20048;-74
2024/02/03 06:42:20;;;;;;;6.20;4.40;;;;;;;8.84;55.67;102171.88;5035561;28;20052;-74
2024/02/03 06:44:48;;;;;;;6.22;4.40;;;;;;;8.83;56.02;102173.75;5018776;28;20136;-73
2024/02/03 06:47:21;;;;;;;6.00;4.20;;;;;;;8.85;55.60;102170.91;5031204;28;20053;-74
2024/02/03 06:49:49;;;;;;;7.18;4.28;;;;;;;8.84;55.72;102170.03;5036651;28;20049;-74
2024/02/03 06:52:19;;;;;;;6.28;4.28;;;;;;;8.84;55.72;102174.63;5026394;28;20041;-74
2024/02/03 06:54:49;;;;;;;6.00;4.15;;;;;;;8.85;56.15;102179.09;5033602;28;20052;-74
2024/02/03 06:57:24;;;;;;;6.45;4.13;;;;;;;8.83;55.68;102181.97;5038460;28;20044;-74
2024/02/03 06:59:52;;;;;;;5.60;3.90;;;;;;;8.83;55.82;102181.06;5029562;28;20046;-74
2024/02/03 07:02:21;;;;;;;6.13;4.63;;;;;;;8.84;55.94;102193.72;5032752;28;20050;-74
2024/02/03 07:04:50;;;;;;;5.32;3.95;;;;;;;8.82;56.15;102182.94;5045516;28;20095;-74
2024/02/03 07:07:18;;;;;;;6.15;4.05;;;;;;;8.82;56.28;102176.59;5020967;28;20045;-75
2024/02/03 07:09:46;;;;;;;5.95;3.88;;;;;;;8.83;56.27;102183.81;5038407;28;20053;-75
2024/02/03 07:12:14;;;;;;;5.28;3.55;;;;;;;8.82;56.11;102193.84;5051036;28;20044;-75
2024/02/03 07:14:42;;;;;;;5.85;4.05;;;;;;;8.83;55.84;102186.53;5030319;28;20044;-74
2024/02/03 07:17:10;;;;;;;6.32;3.78;;;;;;;8.83;56.27;102184.69;5033581;28;20040;-74
2024/02/03 07:19:40;;;;;;;6.38;4.00;;;;;;;8.83;55.99;102179.22;5046496;28;20088;-75
2024/02/03 07:22:08;;;;;;;5.68;3.83;;;;;;;8.83;55.80;102172.88;5043333;28;20048;-74
2024/02/03 07:24:38;;;;;;;5.53;3.75;;;;;;;8.84;55.98;102166.44;5046400;28;20072;-75
2024/02/03 07:27:06;;;;;;;5.70;4.03;;;;;;;8.84;56.41;102180.06;5056497;28;20041;-74
2024/02/03 07:29:34;;;;;;;5.47;3.97;;;;;;;8.84;55.82;102183.69;5024656;28;20045;-74
2024/02/03 07:32:03;;;;;;;5.78;4.00;;;;;;;8.86;56.25;102179.03;5048678;28;20132;-75
2024/02/03 07:34:31;;;;;;;6.55;4.10;;;;;;;8.85;56.10;102176.38;5033261;28;20113;-74
2024/02/03 07:37:01;;;;;;;6.47;4.22;;;;;;;8.88;56.04;102173.47;5049942;28;20095;-75
2024/02/03 07:39:29;;;;;;;5.82;3.95;;;;;;;8.86;55.88;102167.22;5050098;28;20063;-75
2024/02/03 07:41:57;;;;;;;5.32;3.55;;;;;;;8.86;56.41;102173.56;5031900;28;20048;-74
2024/02/03 07:44:25;;;;;;;5.47;3.97;;;;;;;8.87;56.17;102169.88;5031412;28;20059;-75
2024/02/03 07:46:53;;;;;;;5.47;3.63;;;;;;;8.88;56.08;102168.00;5048222;28;20076;-75
2024/02/03 07:49:21;;;;;;;5.50;3.75;;;;;;;8.88;56.35;102170.75;5051789;28;20121;-75
2024/02/03 07:51:49;;;;;;;5.70;3.72;;;;;;;8.88;56.54;102174.34;5034207;28;20582;-75
2024/02/03 07:54:18;;;;;;;4.90;3.45;;;;;;;8.90;56.50;102177.88;5042836;28;20448;-75
2024/02/03 07:56:46;;;;;;;5.18;3.42;;;;;;;8.89;56.50;102173.41;5024563;28;20045;-76
2024/02/03 07:59:15;;;;;;;6.15;3.60;;;;;;;8.90;56.18;102175.16;5024770;28;20051;-74
2024/02/03 08:01:43;;;;;;;6.82;3.88;;;;;;;8.93;56.38;102171.34;5048735;28;20466;-75
2024/02/03 08:04:11;;;;;;;7.82;3.60;;;;;;;8.92;56.49;102172.31;5029776;28;20064;-76
2024/02/03 08:06:39;;;;;;;5.25;3.50;;;;;;;8.93;56.45;102177.69;5035039;28;20075;-74
2024/02/03 08:09:07;;;;;;;5.50;3.60;;;;;;;8.93;56.34;102177.69;5040262;28;20044;-75
2024/02/03 08:11:37;;;;;;;5.03;3.55;;;;;;;8.97;56.43;102183.84;5039622;28;20041;-74
2024/02/03 08:14:05;;;;;;;6.22;3.45;;;;;;;8.95;56.62;102186.66;5024632;28;20045;-74
2024/02/03 08:16:33;;;;;;;5.75;3.42;;;;;;;8.96;56.33;102182.97;5029623;28;20055;-75
2024/02/03 08:19:02;;;;;;;5.15;3.40;;;;;;;8.97;56.63;102192.94;5060858;28;20547;-74
2024/02/03 08:21:30;;;;;;;5.30;3.72;;;;;;;8.96;56.50;102196.63;5043141;28;20038;-75
2024/02/03 08:23:58;;;;;;;5.70;3.40;;;;;;;8.98;56.75;102193.81;5031973;28;20119;-74
2024/02/03 08:26:26;;;;;;;5.20;3.60;;;;;;;8.98;56.34;102185.63;5041947;28;20064;-74
2024/02/03 08:28:55;;;;;;;5.18;3.42;;;;;;;8.99;56.45;102180.06;5039344;28;20103;-75
2024/02/03 08:31:23;;;;;;;6.00;3.78;;;;;;;8.97;56.64;102173.81;5044993;28;20041;-75
2024/02/03 08:33:51;;;;;;;5.90;3.47;;;;;;;8.98;56.60;102183.78;5046353;28;20486;-75
2024/02/03 08:36:19;;;;;;;4.68;3.42;;;;;;;8.98;56.39;102185.63;5030276;28;20033;-74
2024/02/03 08:38:47;;;;;;;5.43;3.65;;;;;;;8.99;56.68;102181.91;5047219;28;20040;-74
2024/02/03 08:41:15;;;;;;;5.55;3.38;;;;;;;8.98;56.60;102191.06;5038395;28;20227;-74
2024/02/03 08:43:43;;;;;;;4.85;3.30;;;;;;;8.98;56.60;102181.03;5042496;28;20048;-74
2024/02/03 08:46:13;;;;;;;5.28;3.53;;;;;;;9.00;57.01;102192.72;5037391;28;20591;-74
2024/02/03 08:48:41;;;;;;;5.97;3.90;;;;;;;8.98;56.66;102191.97;5051322;28;20416;-73
2024/02/03 08:51:09;;;;;;;6.35;3.58;;;;;;;8.98;57.03;102205.59;5013588;28;20072;-73
2024/02/03 08:53:37;;;;;;;4.80;3.00;;;;;;;8.98;57.06;102207.47;5048651;28;20041;-74
2024/02/03 08:56:14;;;;;;;4.57;3.13;;;;;;;8.99;56.73;102206.50;5022562;28;20072;-74
2024/02/03 08:59:00;;;;;;;5.32;2.95;;;;;;;8.99;56.98;102210.09;5045650;28;20050;-75
2024/02/03 09:01:32;;;;;;;4.63;3.17;;;;;;;8.98;56.99;102219.25;5045361;28;20478;-74
2024/02/03 09:04:00;;;;;;;5.07;3.60;;;;;;;8.98;57.09;102211.06;5050921;28;20045;-74
2024/02/03 09:06:28;;;;;;;5.50;3.70;;;;;;;9.00;57.39;102213.72;5044183;28;20268;-74
2024/02/03 09:08:56;;;;;;;6.93;4.40;;;;;;;9.00;57.02;102214.56;5048102;28;20456;-75
2024/02/03 09:11:25;;;;;;;6.28;4.07;;;;;;;9.01;57.37;102215.44;5029053;28;20041;-74
2024/02/03 09:13:52;;;;;;;6.95;4.10;;;;;;;9.03;57.10;102218.97;5042605;28;20037;-74
2024/02/03 09:16:20;;;;;;;5.88;3.63;;;;;;;9.03;57.13;102219.84;5039651;28;20045;-75
2024/02/03 09:18:50;;;;;;;4.72;3.42;;;;;;;9.05;57.17;102220.66;5047568;28;20128;-74
2024/02/03 09:21:18;;;;;;;5.22;3.35;;;;;;;9.04;57.51;102218.88;5017688;28;20408;-74
2024/02/03 09:23:47;;;;;;;5.90;3.25;;;;;;;9.04;57.28;102221.63;5046083;28;20132;-74
2024/02/03 09:26:15;;;;;;;4.50;3.03;;;;;;;9.07;57.45;102216.00;5044474;28;20063;-75
2024/02/03 09:28:43;;;;;;;4.35;3.00;;;;;;;9.07;57.52;102215.09;5049464;28;20037;-76
2024/02/03 09:31:18;;;;;;;4.38;2.85;;;;;;;9.11;58.08;102219.41;5019792;28;20056;-75
2024/02/03 09:33:46;;;;;;;4.80;2.45;;;;;;;9.09;57.59;102224.06;5025593;28;20049;-75
2024/02/03 09:36:16;;;;;;;4.20;2.58;;;;;;;9.12;57.22;102223.91;5041768;28;20050;-76
2024/02/03 09:38:44;;;;;;;4.40;2.92;;;;;;;9.12;57.50;102223.91;5045975;28;20052;-75
2024/02/03 09:41:12;;;;;;;4.65;3.08;;;;;;;9.12;57.27;102221.16;5046157;28;20122;-76
2024/02/03 09:43:41;;;;;;;6.45;3.30;;;;;;;9.14;57.21;102224.69;5027571;28;20049;-77
2024/02/03 09:46:09;;;;;;;4.20;2.80;;;;;;;9.16;57.38;102227.34;5043776;28;20385;-75
2024/02/03 09:48:37;;;;;;;4.70;2.63;;;;;;;9.16;57.58;102227.34;5032356;28;20128;-76
2024/02/03 09:51:05;;;;;;;3.90;2.60;;;;;;;9.17;57.35;102237.25;5026583;28;20037;-74
2024/02/03 09:53:38;;;;;;;5.28;2.92;;;;;;;9.19;57.80;102235.31;5051821;28;20552;-73
2024/02/03 09:56:06;;;;;;;4.85;2.42;;;;;;;9.19;57.50;102230.75;5034188;28;20471;-75
2024/02/03 09:58:34;;;;;;;4.18;2.70;;;;;;;9.20;57.77;102226.16;5048206;28;20126;-74
2024/02/03 10:01:02;;;;;;;4.93;2.75;;;;;;;9.21;57.64;102233.38;5046532;28;20558;-74
2024/02/03 10:03:30;;;;;;;4.50;2.97;;;;;;;9.22;57.28;102225.09;5050524;28;20045;-74
2024/02/03 10:06:02;;;;;;;4.28;2.90;;;;;;;9.27;57.68;102227.53;5051014;28;20048;-74
2024/02/03 10:08:31;;;;;;;5.25;2.80;;;;;;;9.22;57.35;102221.50;5044353;28;20095;-74
2024/02/03 10:11:00;;;;;;;3.95;2.90;;;;;;;9.27;57.83;102231.16;5033213;28;20047;-74
2024/02/03 10:13:28;;;;;;;4.25;2.85;;;;;;;9.25;57.40;102227.63;5050954;28;20056;-74
2024/02/03 10:15:59;;;;;;;5.03;2.88;;;;;;;9.30;57.65;102241.03;5030199;28;20065;-75
2024/02/03 10:18:28;;;;;;;4.55;3.03;;;;;;;9.29;57.59;102242.00;5029693;28;20044;-74
2024/02/03 10:20:57;;;;;;;5.53;3.00;;;;;;;9.29;57.32;102237.41;5047246;28;20717;-73
2024/02/03 10:23:24;;;;;;;5.10;3.28;;;;;;;9.31;57.89;102229.13;5041166;28;20513;-74
2024/02/03 10:25:57;;;;;;;5.70;3.38;;;;;;;9.34;57.90;102242.59;5022270;28;20049;-73
2024/02/03 10:28:27;;;;;;;4.68;3.15;;;;;;;9.32;58.12;102242.72;5043662;28;20068;-74
2024/02/03 10:30:56;;;;;;;5.38;2.90;;;;;;;9.34;58.01;102240.75;5049036;28;20048;-74
2024/02/03 10:33:28;;;;;;;5.30;3.55;;;;;;;9.36;58.07;102237.91;5030408;28;20564;-74
2024/02/03 10:35:57;;;;;;;5.35;3.58;;;;;;;9.37;57.92;102240.56;5042419;28;20052;-74
2024/02/03 10:38:26;;;;;;;5.90;3.25;;;;;;;9.38;57.43;102242.38;5046370;28;20590;-74
2024/02/03 10:40:55;;;;;;;4.97;3.20;;;;;;;9.40;57.88;102232.22;5043008;28;20132;-74
2024/02/03 10:43:29;;;;;;;7.43;3.47;;;;;;;9.43;57.58;102232.03;5051573;28;20057;-76
2024/02/03 10:46:01;;;;;;;5.28;3.42;;;;;;;9.43;58.09;102234.75;5046353;28;20052;-74
2024/02/03 10:48:33;;;;;;;5.05;3.50;;;;;;;9.42;57.87;102233.00;5041484;28;21954;-74
2024/02/03 10:51:05;;;;;;;5.55;4.07;;;;;;;9.44;57.66;102236.50;5046094;28;20040;-75
2024/02/03 10:53:38;;;;;;;7.83;3.70;;;;;;;9.45;57.87;102232.81;5040908;28;20120;-77
2024/02/03 10:56:09;;;;;;;5.63;3.70;;;;;;;9.46;57.99;102244.63;5042791;28;20508;-75
2024/02/03 10:58:40;;;;;;;5.57;3.37;;;;;;;9.47;57.54;102230.00;5050364;28;20033;-76
2024/02/03 11:01:13;;;;;;;6.72;3.83;;;;;;;9.51;57.75;102234.28;5046499;28;20036;-75
2024/02/03 11:03:41;;;;;;;;;;;;;;;9.25;59.01;102235.81;5045116;28;20053;-77
2024/02/03 11:06:09;;;;;;;5.03;3.17;;;;;;;9.46;57.64;102229.09;5037255;28;19971;-77
2024/02/03 11:08:43;;;;;;;5.55;3.25;;;;;;;9.53;57.62;102232.34;5049061;28;20414;-77
2024/02/03 11:11:11;;;;;;;4.82;3.72;;;;;;;9.52;57.87;102222.38;5054362;28;20041;-76
2024/02/03 11:13:41;;;;;;;5.85;3.58;;;;;;;9.55;57.68;102214.00;5055632;28;20048;-78
2024/02/03 11:16:09;;;;;;;5.63;3.65;;;;;;;9.55;57.86;102211.28;5057386;28;20071;-77
2024/02/03 11:18:41;;;;;;;5.65;3.58;;;;;;;9.57;58.01;102217.53;5054606;28;20065;-77
2024/02/03 11:21:09;;;;;;;4.70;3.00;;;;;;;9.55;58.08;102210.38;5055633;28;20040;-77
2024/02/03 11:23:38;;;;;;;5.57;3.42;;;;;;;9.57;57.91;102209.31;5034968;28;20128;-75
2024/02/03 11:26:07;;;;;;;5.18;3.25;;;;;;;9.58;57.70;102210.19;5033220;28;20055;-75
2024/02/03 11:28:35;;;;;;;5.63;3.33;;;;;;;9.58;57.75;102208.31;5019523;28;20500;-76
2024/02/03 11:31:05;;;;;;;6.97;3.40;;;;;;;9.62;57.90;102214.50;5039546;28;20045;-76
2024/02/03 11:33:41;;;;;;;5.80;3.35;;;;;;;9.63;58.45;102210.78;5032542;28;20072;-75
2024/02/03 11:36:10;;;;;;;4.45;3.22;;;;;;;9.61;57.45;102216.34;5051553;28;20041;-76
2024/02/03 11:38:46;;;;;;;5.07;3.58;;;;;;;9.64;58.25;102196.16;5058789;28;20058;-77
2024/02/03 11:41:15;;;;;;;4.72;3.00;;;;;;;9.62;57.38;102214.50;5038801;28;20068;-77
2024/02/03 11:43:44;;;;;;;4.72;3.20;;;;;;;9.63;57.71;102205.31;5052360;28;20045;-76
2024/02/03 11:46:16;;;;;;;5.70;3.50;;;;;;;9.64;57.47;102207.97;5021405;28;20077;-76
2024/02/03 11:48:45;;;;;;;5.50;3.20;;;;;;;9.63;57.68;102197.13;5029230;28;20045;-75
2024/02/03 11:51:16;;;;;;;6.00;3.83;;;;;;;9.65;57.87;102195.19;5030931;28;20042;-76
2024/02/03 11:53:44;;;;;;;4.80;3.28;;;;;;;9.64;57.53;102196.16;5051154;28;20518;-77